createdAt,value
2023-02-24T00:02:07.191Z,24.08
2023-02-24T00:04:41.775Z,24.33
2023-02-24T00:07:12.797Z,22.98
2023-02-24T00:09:44.584Z,22.42
2023-02-24T00:12:16.050Z,23.80
2023-02-24T00:14:47.012Z,21.85
2023-02-24T00:17:20.067Z,23.05
2023-02-24T00:19:49.543Z,28.08
2023-02-24T00:22:19.464Z,22.27
2023-02-24T00:24:51.728Z,23.00
2023-02-24T00:27:21.231Z,22.02
2023-02-24T00:29:51.871Z,23.10
2023-02-24T00:32:22.748Z,23.23
2023-02-24T00:34:52.238Z,22.52
2023-02-24T00:37:24.433Z,23.67
2023-02-24T00:39:59.501Z,23.83
2023-02-24T00:42:31.051Z,26.45
2023-02-24T00:45:00.346Z,21.42
2023-02-24T00:47:34.043Z,24.63
2023-02-24T00:50:05.417Z,19.30
2023-02-24T00:52:35.134Z,21.52
2023-02-24T00:55:14.250Z,25.75
2023-02-24T00:57:45.314Z,22.13
2023-02-24T01:00:19.209Z,23.65
2023-02-24T01:02:49.921Z,25.70
2023-02-24T01:05:20.194Z,24.05
2023-02-24T01:07:53.767Z,29.20
2023-02-24T01:10:27.008Z,24.00
2023-02-24T01:12:55.918Z,23.00
2023-02-24T01:15:25.042Z,26.08
2023-02-24T01:17:55.747Z,23.30
2023-02-24T01:20:25.042Z,27.83
2023-02-24T01:22:57.611Z,26.90
2023-02-24T01:25:31.524Z,27.25
2023-02-24T01:28:01.613Z,29.35
2023-02-24T01:30:31.458Z,32.67
2023-02-24T01:33:02.488Z,44.33
2023-02-24T01:35:35.609Z,55.22
2023-02-24T01:38:06.322Z,60.67
2023-02-24T01:40:36.707Z,55.60
2023-02-24T01:43:09.088Z,56.00
2023-02-24T01:45:40.563Z,58.80
2023-02-24T01:48:13.162Z,62.08
2023-02-24T01:50:43.012Z,58.20
2023-02-24T01:53:12.999Z,62.13
2023-02-24T01:55:47.779Z,56.00
2023-02-24T01:58:25.869Z,55.60
2023-02-24T02:00:59.356Z,54.10
2023-02-24T02:03:36.739Z,49.72
2023-02-24T02:06:09.166Z,41.90
2023-02-24T02:08:41.977Z,40.45
2023-02-24T02:11:15.356Z,41.60
2023-02-24T02:13:47.011Z,33.75
2023-02-24T02:16:47.765Z,39.42
2023-02-24T02:19:45.935Z,34.25
2023-02-24T02:22:48.135Z,30.27
2023-02-24T02:25:27.336Z,29.30
2023-02-24T02:28:25.521Z,30.17
2023-02-24T02:31:29.261Z,30.67
2023-02-24T02:37:05.765Z,29.00
2023-02-24T02:39:44.424Z,31.40
2023-02-24T02:42:21.703Z,26.42
2023-02-24T02:45:00.462Z,29.60
2023-02-24T02:47:35.476Z,30.52
2023-02-24T02:50:21.457Z,34.88
2023-02-24T02:52:57.028Z,31.00
2023-02-24T02:55:31.566Z,35.22
2023-02-24T02:58:02.553Z,30.05
2023-02-24T03:00:37.137Z,32.65
2023-02-24T03:03:12.673Z,34.63
2023-02-24T03:05:50.735Z,29.98
2023-02-24T03:08:25.813Z,33.25
2023-02-24T03:11:00.358Z,29.92
2023-02-24T03:13:33.038Z,35.90
2023-02-24T03:16:04.425Z,43.03
2023-02-24T03:18:36.488Z,35.17
2023-02-24T03:21:09.100Z,39.20
2023-02-24T03:23:48.374Z,48.75
2023-02-24T03:26:23.448Z,56.05
2023-02-24T03:28:59.593Z,51.60
2023-02-24T03:31:34.542Z,58.00
2023-02-24T03:34:08.243Z,52.58
2023-02-24T03:36:37.342Z,56.72
2023-02-24T03:39:12.102Z,63.42
2023-02-24T03:41:57.363Z,71.47
2023-02-24T03:44:28.827Z,62.65
2023-02-24T03:46:57.558Z,60.35
2023-02-24T03:49:27.107Z,61.08
2023-02-24T03:52:12.524Z,54.35
2023-02-24T03:54:59.187Z,53.28
2023-02-24T03:57:54.730Z,54.78
2023-02-24T04:00:35.325Z,52.80
2023-02-24T04:03:13.690Z,58.70
2023-02-24T04:05:47.947Z,52.85
2023-02-24T04:08:20.192Z,59.65
2023-02-24T04:10:58.134Z,59.13
2023-02-24T04:13:35.402Z,53.95
2023-02-24T04:16:16.871Z,44.13
2023-02-24T04:18:50.549Z,49.25
2023-02-24T04:21:23.509Z,51.15
2023-02-24T04:23:53.216Z,54.15
2023-02-24T04:26:24.903Z,58.65
2023-02-24T04:28:57.475Z,50.22
2023-02-24T04:31:30.929Z,54.10
2023-02-24T04:34:00.259Z,51.80
2023-02-24T04:36:38.267Z,44.53
2023-02-24T04:39:07.951Z,54.40
2023-02-24T04:41:38.739Z,55.10
2023-02-24T04:44:07.328Z,44.55
2023-02-24T04:46:36.026Z,52.83
2023-02-24T04:49:05.520Z,56.30
2023-02-24T04:51:34.092Z,46.17
2023-02-24T04:54:03.730Z,47.63
2023-02-24T04:56:32.346Z,45.88
2023-02-24T04:59:02.586Z,48.20
2023-02-24T05:01:31.941Z,50.58
2023-02-24T05:04:01.130Z,54.45
2023-02-24T05:06:29.959Z,39.58
2023-02-24T05:09:01.387Z,49.80
2023-02-24T05:11:34.804Z,45.67
2023-02-24T05:14:05.060Z,41.15
2023-02-24T05:16:34.518Z,56.08
2023-02-24T05:19:20.623Z,47.28
2023-02-24T05:21:49.137Z,50.50
2023-02-24T05:24:17.639Z,50.60
2023-02-24T05:26:46.715Z,45.83
2023-02-24T05:29:16.623Z,54.00
2023-02-24T05:31:45.977Z,40.47
2023-02-24T05:34:17.210Z,50.25
2023-02-24T05:36:46.380Z,50.20
2023-02-24T05:39:19.281Z,44.35
2023-02-24T05:41:49.857Z,39.97
2023-02-24T05:44:23.313Z,48.70
2023-02-24T05:46:56.781Z,43.80
2023-02-24T05:49:29.212Z,41.28
2023-02-24T06:21:08.475Z,43.45
2023-02-24T06:23:37.065Z,38.13
2023-02-24T06:26:12.761Z,39.53
2023-02-24T06:28:43.257Z,33.25
2023-02-24T06:31:12.277Z,33.47
2023-02-24T06:33:41.844Z,33.47
2023-02-24T06:36:14.278Z,30.52
2023-02-24T06:38:43.117Z,28.08
2023-02-24T06:41:14.557Z,26.20
2023-02-24T06:43:45.080Z,29.20
2023-02-24T06:46:15.323Z,18.50
2023-02-24T06:48:44.267Z,21.40
2023-02-24T06:51:16.493Z,21.02
2023-02-24T06:53:45.661Z,18.58
2023-02-24T06:56:16.155Z,15.00
2023-02-24T06:58:46.287Z,18.23
2023-02-24T07:01:16.443Z,13.13
2023-02-24T07:04:03.552Z,13.85
2023-02-24T07:06:36.443Z,16.08
2023-02-24T07:09:07.152Z,22.25
2023-02-24T07:11:37.876Z,16.58
2023-02-24T07:14:06.443Z,18.40
2023-02-24T07:16:35.925Z,18.70
2023-02-24T07:19:11.188Z,18.42
2023-02-24T07:21:46.689Z,14.95
2023-02-24T07:24:24.802Z,15.02
2023-02-24T07:26:58.201Z,18.13
2023-02-24T07:29:28.303Z,19.65
2023-02-24T07:32:01.414Z,19.42
2023-02-24T07:34:30.444Z,18.15
2023-02-24T07:37:02.651Z,23.23
2023-02-24T07:39:32.139Z,23.90
2023-02-24T07:42:00.737Z,18.13
2023-02-24T07:44:30.204Z,19.75
2023-02-24T07:46:59.418Z,21.48
2023-02-24T07:49:30.250Z,18.33
2023-02-24T07:52:01.980Z,16.70
2023-02-24T07:54:30.928Z,14.48
2023-02-24T07:57:00.179Z,17.88
2023-02-24T07:59:30.496Z,12.88
2023-02-24T08:01:59.320Z,19.98
2023-02-24T08:04:30.388Z,12.70
2023-02-24T08:07:03.232Z,11.32
2023-02-24T08:10:03.906Z,13.75
2023-02-24T08:12:35.106Z,16.77
2023-02-24T08:15:17.063Z,16.92
2023-02-24T08:17:47.365Z,19.15
2023-02-24T08:20:29.937Z,16.23
2023-02-24T08:23:00.134Z,9.35
2023-02-24T08:25:36.464Z,9.18
2023-02-24T08:28:09.685Z,18.90
2023-02-24T08:30:45.097Z,16.55
2023-02-24T08:33:19.201Z,12.85
2023-02-24T08:35:52.850Z,8.65
2023-02-24T08:38:26.363Z,16.05
2023-02-24T08:40:58.515Z,13.98
2023-02-24T08:43:34.972Z,14.32
2023-02-24T08:46:18.197Z,10.32
2023-02-24T08:48:49.182Z,10.15
2023-02-24T08:51:23.102Z,17.45
2023-02-24T08:53:55.164Z,14.27
2023-02-24T08:56:25.809Z,11.35
2023-02-24T08:59:05.306Z,13.52
2023-02-24T09:01:36.265Z,16.80
2023-02-24T09:04:08.082Z,14.82
2023-02-24T09:06:43.761Z,21.25
2023-02-24T09:09:22.447Z,15.00
2023-02-24T09:11:56.133Z,22.05
2023-02-24T09:14:28.748Z,15.85
2023-02-24T09:17:06.974Z,18.08
2023-02-24T09:19:58.781Z,11.38
2023-02-24T09:22:31.632Z,12.20
2023-02-24T09:25:19.127Z,12.50
2023-02-24T09:27:52.298Z,12.98
2023-02-24T09:30:38.456Z,8.18
2023-02-24T09:33:17.592Z,13.07
2023-02-24T09:35:51.994Z,16.42
2023-02-24T09:38:42.804Z,14.00
2023-02-24T09:41:31.732Z,16.65
2023-02-24T09:44:07.251Z,15.80
2023-02-24T09:46:54.216Z,11.70
2023-02-24T09:49:28.436Z,17.33
2023-02-24T09:52:08.899Z,13.52
2023-02-24T09:54:37.514Z,16.20
2023-02-24T09:57:16.941Z,15.43
2023-02-24T10:00:01.380Z,10.70
2023-02-24T10:02:44.327Z,14.90
2023-02-24T10:05:26.696Z,10.77
2023-02-24T10:07:57.535Z,17.00
2023-02-24T10:10:29.836Z,13.50
2023-02-24T10:13:14.754Z,14.35
2023-02-24T10:15:59.066Z,16.88
2023-02-24T10:18:31.670Z,14.23
2023-02-24T10:21:10.882Z,14.95
2023-02-24T10:23:59.655Z,11.60
2023-02-24T10:26:51.223Z,15.93
2023-02-24T10:29:43.642Z,12.00
2023-02-24T10:32:35.483Z,15.77
2023-02-24T10:35:06.298Z,17.30
2023-02-24T10:37:35.199Z,8.57
2023-02-24T10:40:09.962Z,14.52
2023-02-24T10:42:45.868Z,11.77
2023-02-24T10:45:19.349Z,16.25
2023-02-24T10:47:56.502Z,11.38
2023-02-24T10:50:29.814Z,12.35
2023-02-24T10:53:26.013Z,13.38
2023-02-24T10:56:15.028Z,8.18
2023-02-24T10:58:56.538Z,12.75
2023-02-24T11:01:54.873Z,11.18
2023-02-24T11:04:33.339Z,9.10
2023-02-24T11:07:10.292Z,12.05
2023-02-24T11:09:52.361Z,7.78
2023-02-24T11:12:41.850Z,11.40
2023-02-24T11:15:37.834Z,10.98
2023-02-24T11:18:10.496Z,8.55
2023-02-24T11:20:49.482Z,11.75
2023-02-24T11:23:23.211Z,14.77
2023-02-24T11:25:54.946Z,13.27
2023-02-24T11:28:38.666Z,11.10
2023-02-24T11:31:17.406Z,10.18
2023-02-24T11:33:55.672Z,11.73
2023-02-24T11:36:31.508Z,13.02
2023-02-24T11:39:18.989Z,12.85
2023-02-24T11:41:55.545Z,8.55
2023-02-24T11:44:30.688Z,10.35
2023-02-24T11:47:07.267Z,9.75
2023-02-24T11:49:44.269Z,11.30
2023-02-24T11:52:19.018Z,11.48
2023-02-24T11:54:51.438Z,10.65
2023-02-24T11:57:25.028Z,10.68
2023-02-24T12:00:04.927Z,12.60
2023-02-24T12:02:47.086Z,12.18
2023-02-24T12:05:20.460Z,9.45
2023-02-24T12:07:52.106Z,16.38
2023-02-24T12:10:24.695Z,12.70
2023-02-24T12:13:05.086Z,12.13
2023-02-24T12:15:40.322Z,7.18
2023-02-24T12:18:17.726Z,9.05
2023-02-24T12:20:51.665Z,7.68
2023-02-24T12:23:24.926Z,11.05
2023-02-24T12:26:06.791Z,8.52
2023-02-24T12:29:03.009Z,7.32
2023-02-24T12:31:38.922Z,9.25
2023-02-24T12:34:14.433Z,10.23
2023-02-24T12:36:58.379Z,7.10
2023-02-24T12:39:36.890Z,9.07
2023-02-24T12:42:14.717Z,8.32
2023-02-24T12:44:53.557Z,8.05
2023-02-24T12:47:27.920Z,9.90
2023-02-24T12:50:11.958Z,8.45
2023-02-24T12:52:52.355Z,5.68
2023-02-24T12:55:26.449Z,6.57
2023-02-24T12:58:05.459Z,9.65
2023-02-24T13:00:43.721Z,7.47
2023-02-24T13:03:29.051Z,7.88
2023-02-24T13:06:06.274Z,7.97
2023-02-24T13:08:44.893Z,4.55
2023-02-24T13:11:22.320Z,9.82
2023-02-24T13:14:03.883Z,7.90
2023-02-24T13:16:34.754Z,7.80
2023-02-24T13:19:07.907Z,10.27
2023-02-24T13:21:36.519Z,6.80
2023-02-24T13:24:06.897Z,6.97
2023-02-24T13:26:35.480Z,7.25
2023-02-24T13:29:11.155Z,12.07
2023-02-24T13:31:45.557Z,10.00
2023-02-24T13:34:16.619Z,11.18
2023-02-24T13:36:49.911Z,10.35
2023-02-24T13:39:27.118Z,6.25
2023-02-24T13:42:05.224Z,7.72
2023-02-24T13:44:34.599Z,7.25
2023-02-24T13:47:41.594Z,6.55
2023-02-24T13:50:21.947Z,9.63
2023-02-24T13:53:20.012Z,6.93
2023-02-24T13:56:04.933Z,11.48
2023-02-24T13:58:56.881Z,8.32
2023-02-24T14:01:30.561Z,6.65
2023-02-24T14:04:14.346Z,6.78
2023-02-24T14:06:48.816Z,5.05
2023-02-24T14:09:23.042Z,4.70
2023-02-24T14:12:00.726Z,12.60
2023-02-24T14:14:30.468Z,10.65
2023-02-24T14:16:59.067Z,8.13
2023-02-24T14:19:28.118Z,7.38
2023-02-24T14:21:58.761Z,7.10
2023-02-24T14:24:29.133Z,8.77
2023-02-24T14:27:00.261Z,6.57
2023-02-24T14:29:32.789Z,9.05
2023-02-24T14:32:02.445Z,8.85
2023-02-24T14:34:34.000Z,7.85
2023-02-24T14:37:04.337Z,9.25
2023-02-24T14:39:34.299Z,11.25
2023-02-24T14:42:13.511Z,6.22
2023-02-24T14:44:43.926Z,8.65
2023-02-24T14:47:15.187Z,8.35
2023-02-24T14:49:52.706Z,7.32
2023-02-24T14:52:30.650Z,10.63
2023-02-24T14:55:02.608Z,9.43
2023-02-24T14:57:36.600Z,7.82
2023-02-24T15:00:11.725Z,10.63
2023-02-24T15:02:44.781Z,9.65
2023-02-24T15:05:13.622Z,7.03
2023-02-24T15:07:45.758Z,6.53
2023-02-24T15:10:26.161Z,9.38
2023-02-24T15:13:01.052Z,9.25
2023-02-24T15:15:34.152Z,7.40
2023-02-24T15:18:12.393Z,9.38
2023-02-24T15:20:42.007Z,10.02
2023-02-24T15:23:27.438Z,12.35
2023-02-24T15:25:55.977Z,11.90
2023-02-24T15:28:30.563Z,14.38
2023-02-24T15:31:06.086Z,10.80
2023-02-24T15:33:40.073Z,9.80
2023-02-24T15:36:12.493Z,10.60
2023-02-24T15:38:43.455Z,10.68
2023-02-24T15:41:15.094Z,11.25
2023-02-24T15:43:50.422Z,6.32
2023-02-24T15:46:25.971Z,7.20
2023-02-24T15:48:57.463Z,10.27
2023-02-24T15:51:33.154Z,11.38
2023-02-24T15:54:03.111Z,10.65
2023-02-24T15:56:34.747Z,10.35
2023-02-24T15:59:06.022Z,10.55
2023-02-24T16:01:35.156Z,10.75
2023-02-24T16:04:05.620Z,9.13
2023-02-24T16:06:36.090Z,9.32
2023-02-24T16:09:05.553Z,10.65
2023-02-24T16:11:39.647Z,10.60
2023-02-24T16:14:13.945Z,7.05
2023-02-24T16:16:42.947Z,9.50
2023-02-24T16:19:15.413Z,7.38
2023-02-24T16:21:44.522Z,11.35
2023-02-24T16:24:13.224Z,12.82
2023-02-24T16:26:42.131Z,18.30
2023-02-24T16:29:15.907Z,9.02
2023-02-24T16:31:44.860Z,7.90
2023-02-24T16:34:16.147Z,8.25
2023-02-24T16:36:45.003Z,9.35
2023-02-24T16:39:14.916Z,9.38
2023-02-24T16:41:43.563Z,7.35
2023-02-24T16:44:14.289Z,8.45
2023-02-24T16:46:45.966Z,11.25
2023-02-24T16:49:20.775Z,7.40
2023-02-24T16:51:49.379Z,9.90
2023-02-24T16:54:21.691Z,5.65
2023-02-24T16:56:50.584Z,6.78
2023-02-24T16:59:20.675Z,7.43
2023-02-24T17:01:49.398Z,9.88
2023-02-24T17:04:18.115Z,6.20
2023-02-24T17:06:46.893Z,6.82
2023-02-24T17:09:15.624Z,5.53
2023-02-24T17:11:44.964Z,8.38
2023-02-24T17:14:17.587Z,8.20
2023-02-24T17:16:48.302Z,7.30
2023-02-24T17:19:17.687Z,7.90
2023-02-24T17:21:47.026Z,6.30
2023-02-24T17:24:17.653Z,11.07
2023-02-24T17:26:46.327Z,6.15
2023-02-24T17:29:15.343Z,7.65
2023-02-24T17:31:44.143Z,8.02
2023-02-24T17:34:14.184Z,8.05
2023-02-24T17:36:42.806Z,6.88
2023-02-24T17:39:11.442Z,8.50
2023-02-24T17:41:40.182Z,8.57
2023-02-24T17:44:08.765Z,9.60
2023-02-24T17:46:37.420Z,8.10
2023-02-24T17:49:06.134Z,8.23
2023-02-24T17:51:36.009Z,10.85
2023-02-24T17:54:04.974Z,9.98
2023-02-24T17:56:33.641Z,8.77
2023-02-24T17:59:02.221Z,9.85
2023-02-24T18:01:30.857Z,12.05
2023-02-24T18:03:59.358Z,13.60
2023-02-24T18:06:27.963Z,14.48
2023-02-24T18:08:57.896Z,12.82
2023-02-24T18:11:26.462Z,10.75
2023-02-24T18:14:00.349Z,14.32
2023-02-24T18:16:30.033Z,13.13
2023-02-24T18:18:59.319Z,12.48
2023-02-24T18:21:28.253Z,10.68
2023-02-24T18:23:58.268Z,12.55
2023-02-24T18:26:27.144Z,14.77
2023-02-24T18:28:56.532Z,13.38
2023-02-24T18:31:26.509Z,12.57
2023-02-24T18:33:57.063Z,11.77
2023-02-24T18:36:26.642Z,14.57
2023-02-24T18:38:57.381Z,18.77
2023-02-24T18:41:27.443Z,18.15
2023-02-24T18:43:59.055Z,15.18
2023-02-24T18:46:28.658Z,14.15
2023-02-24T18:48:57.899Z,19.10
2023-02-24T18:51:28.879Z,15.40
2023-02-24T18:53:59.309Z,17.45
2023-02-24T18:56:32.113Z,18.88
2023-02-24T18:59:02.128Z,14.27
2023-02-24T19:01:32.363Z,17.08
2023-02-24T19:04:01.534Z,19.27
2023-02-24T19:06:32.147Z,16.60
2023-02-24T19:09:03.039Z,20.27
2023-02-24T19:11:33.265Z,15.40
2023-02-24T19:14:01.835Z,16.88
2023-02-24T19:16:31.209Z,17.95
2023-02-24T19:19:00.841Z,18.73
2023-02-24T19:21:31.513Z,25.92
2023-02-24T19:24:01.937Z,18.27
2023-02-24T19:26:32.149Z,17.13
2023-02-24T19:29:01.043Z,21.77
2023-02-24T19:31:31.100Z,21.90
2023-02-24T19:34:01.743Z,22.35
2023-02-24T19:36:31.999Z,19.58
2023-02-24T19:39:00.834Z,21.85
2023-02-24T19:41:29.685Z,17.35
2023-02-24T19:43:59.859Z,17.10
2023-02-24T19:46:32.776Z,16.95
2023-02-24T19:49:01.399Z,18.95
2023-02-24T19:51:30.051Z,14.02
2023-02-24T19:54:00.335Z,16.65
2023-02-24T19:56:31.589Z,16.60
2023-02-24T19:59:02.565Z,13.20
2023-02-24T20:01:31.878Z,15.43
2023-02-24T20:04:02.447Z,11.80
2023-02-24T20:06:32.675Z,7.63
2023-02-24T20:09:01.709Z,8.95
2023-02-24T20:11:31.012Z,8.88
2023-02-24T20:14:00.923Z,5.85
2023-02-24T20:16:32.630Z,4.82
2023-02-24T20:19:01.762Z,8.00
2023-02-24T20:21:30.985Z,7.40
2023-02-24T20:24:00.919Z,7.45
2023-02-24T20:26:29.838Z,6.22
2023-02-24T20:28:59.938Z,10.63
2023-02-24T20:31:29.963Z,6.13
2023-02-24T20:33:58.540Z,8.95
2023-02-24T20:36:29.366Z,9.65
2023-02-24T20:38:59.926Z,9.38
2023-02-24T20:41:30.640Z,16.33
2023-02-24T20:43:59.395Z,8.32
2023-02-24T20:46:31.592Z,13.68
2023-02-24T20:49:02.279Z,10.57
2023-02-24T20:51:32.474Z,12.25
2023-02-24T20:54:01.263Z,9.20
2023-02-24T20:56:33.962Z,7.35
2023-02-24T20:59:04.884Z,9.30
2023-02-24T21:01:35.769Z,7.18
2023-02-24T21:04:04.871Z,8.40
2023-02-24T21:06:33.755Z,14.05
2023-02-24T21:09:02.536Z,8.23
2023-02-24T21:11:31.233Z,8.48
2023-02-24T21:14:00.069Z,5.95
2023-02-24T21:16:28.770Z,7.18
2023-02-24T21:18:59.455Z,11.43
2023-02-24T21:21:28.354Z,8.30
2023-02-24T21:23:56.936Z,5.40
2023-02-24T21:26:27.094Z,11.13
2023-02-24T21:28:57.883Z,7.93
2023-02-24T21:31:28.109Z,4.30
2023-02-24T21:33:58.511Z,9.10
2023-02-24T21:36:28.054Z,8.77
2023-02-24T21:38:57.127Z,10.77
2023-02-24T21:41:25.615Z,7.22
2023-02-24T21:43:55.957Z,9.70
2023-02-24T21:46:28.471Z,4.47
2023-02-24T21:49:00.282Z,5.15
2023-02-24T21:51:29.564Z,6.28
2023-02-24T21:53:58.933Z,7.00
2023-02-24T21:56:29.566Z,6.03
2023-02-24T21:59:00.040Z,7.72
2023-02-24T22:01:30.731Z,5.72
2023-02-24T22:04:03.282Z,12.02
2023-02-24T22:06:33.582Z,6.25
2023-02-24T22:09:03.697Z,8.52
2023-02-24T22:11:35.178Z,6.10
2023-02-24T22:14:04.498Z,11.02
2023-02-24T22:16:33.161Z,4.82
2023-02-24T22:19:03.762Z,11.77
2023-02-24T22:21:32.559Z,6.95
2023-02-24T22:24:02.913Z,10.90
2023-02-24T22:26:32.933Z,10.20
2023-02-24T22:29:02.492Z,15.32
2023-02-24T22:31:32.893Z,10.32
2023-02-24T22:34:04.348Z,11.02
2023-02-24T22:36:36.740Z,8.63
2023-02-24T22:39:06.559Z,13.70
2023-02-24T22:41:35.974Z,11.82
2023-02-24T22:44:06.723Z,10.50
2023-02-24T22:46:37.631Z,10.57
2023-02-24T22:49:07.911Z,6.95
2023-02-24T22:51:36.693Z,11.13
2023-02-24T22:54:06.131Z,12.55
2023-02-24T22:56:35.200Z,15.30
2023-02-24T22:59:03.827Z,10.75
2023-02-24T23:01:34.856Z,6.93
2023-02-24T23:04:04.905Z,13.18
2023-02-24T23:06:36.283Z,12.63
2023-02-24T23:09:06.169Z,13.77
2023-02-24T23:11:37.445Z,14.18
2023-02-24T23:14:09.980Z,9.52
2023-02-24T23:16:39.167Z,7.60
2023-02-24T23:19:12.110Z,11.82
2023-02-24T23:21:45.191Z,8.40
2023-02-24T23:24:15.601Z,8.18
2023-02-24T23:26:47.117Z,12.48
2023-02-24T23:29:18.244Z,12.93
2023-02-24T23:31:47.574Z,17.73
2023-02-24T23:34:16.582Z,14.35
2023-02-24T23:36:48.029Z,9.52
2023-02-24T23:39:20.281Z,12.55
2023-02-24T23:41:49.445Z,13.85
2023-02-24T23:44:17.997Z,13.68
2023-02-24T23:46:46.792Z,19.48
2023-02-24T23:49:15.896Z,12.25
2023-02-24T23:51:48.831Z,14.57
2023-02-24T23:54:18.513Z,16.85
2023-02-24T23:56:47.449Z,9.52
2023-02-24T23:59:16.491Z,11.65
